sensor_id;sensor_type;location;lat;lon;timestamp;P1;durP1;ratioP1;P2;durP2;ratioP2
46561;SDS011;32289;42.688;23.330;2022-08-19T20:15:04;10.70;;;6.95;;
46561;SDS011;32289;42.688;23.330;2022-08-19T20:18:46;10.95;;;7.00;;
46561;SDS011;32289;42.688;23.330;2022-08-19T20:22:27;13.27;;;7.05;;
46561;SDS011;32289;42.688;23.330;2022-08-19T20:26:08;14.80;;;7.38;;
46561;SDS011;32289;42.688;23.330;2022-08-19T20:29:49;17.55;;;7.03;;
46561;SDS011;32289;42.688;23.330;2022-08-19T20:33:30;12.15;;;6.80;;
46561;SDS011;32289;42.688;23.330;2022-08-19T20:37:11;19.85;;;7.40;;
46561;SDS011;32289;42.688;23.330;2022-08-19T20:40:51;12.48;;;6.38;;
46561;SDS011;32289;42.688;23.330;2022-08-19T20:44:32;17.98;;;6.90;;
46561;SDS011;32289;42.688;23.330;2022-08-19T20:48:13;10.82;;;6.30;;
46561;SDS011;32289;42.688;23.330;2022-08-19T20:51:54;11.63;;;6.53;;
46561;SDS011;32289;42.688;23.330;2022-08-19T20:55:35;11.20;;;6.50;;
46561;SDS011;32289;42.688;23.330;2022-08-19T20:59:16;15.85;;;7.07;;
46561;SDS011;32289;42.688;23.330;2022-08-19T21:02:59;13.48;;;5.90;;
46561;SDS011;32289;42.688;23.330;2022-08-19T21:06:40;10.68;;;6.25;;
46561;SDS011;32289;42.688;23.330;2022-08-19T21:10:21;8.23;;;5.30;;
46561;SDS011;32289;42.688;23.330;2022-08-19T21:14:02;7.75;;;5.18;;
46561;SDS011;32289;42.688;23.330;2022-08-19T21:17:43;10.00;;;5.28;;
46561;SDS011;32289;42.688;23.330;2022-08-19T21:21:25;10.93;;;4.90;;
46561;SDS011;32289;42.688;23.330;2022-08-19T21:25:06;10.57;;;5.35;;
46561;SDS011;32289;42.688;23.330;2022-08-19T21:28:47;7.18;;;4.70;;
46561;SDS011;32289;42.688;23.330;2022-08-19T21:32:28;8.57;;;5.60;;
46561;SDS011;32289;42.688;23.330;2022-08-19T21:36:09;9.00;;;5.38;;
46561;SDS011;32289;42.688;23.330;2022-08-19T21:39:50;11.15;;;5.45;;
46561;SDS011;32289;42.688;23.330;2022-08-19T21:43:30;11.07;;;5.70;;
46561;SDS011;32289;42.688;23.330;2022-08-19T21:47:11;10.18;;;6.28;;
46561;SDS011;32289;42.688;23.330;2022-08-19T21:50:52;9.45;;;5.47;;
46561;SDS011;32289;42.688;23.330;2022-08-19T21:54:33;9.30;;;5.35;;
46561;SDS011;32289;42.688;23.330;2022-08-19T21:58:14;9.48;;;5.50;;
46561;SDS011;32289;42.688;23.330;2022-08-19T22:01:55;10.68;;;5.45;;
46561;SDS011;32289;42.688;23.330;2022-08-19T22:05:35;9.27;;;5.53;;
46561;SDS011;32289;42.688;23.330;2022-08-19T22:09:16;5.18;;;4.20;;
46561;SDS011;32289;42.688;23.330;2022-08-19T22:12:57;7.95;;;4.35;;
46561;SDS011;32289;42.688;23.330;2022-08-19T22:16:37;7.90;;;5.13;;
46561;SDS011;32289;42.688;23.330;2022-08-19T22:20:20;7.53;;;5.65;;
46561;SDS011;32289;42.688;23.330;2022-08-19T22:24:02;8.32;;;5.20;;
46561;SDS011;32289;42.688;23.330;2022-08-19T22:27:43;9.57;;;5.35;;
46561;SDS011;32289;42.688;23.330;2022-08-19T22:31:23;9.02;;;5.25;;
46561;SDS011;32289;42.688;23.330;2022-08-19T22:35:04;8.20;;;5.32;;
46561;SDS011;32289;42.688;23.330;2022-08-19T22:38:47;6.68;;;5.50;;
46561;SDS011;32289;42.688;23.330;2022-08-19T22:42:28;12.40;;;4.55;;
46561;SDS011;32289;42.688;23.330;2022-08-19T22:46:10;6.53;;;5.07;;
46561;SDS011;32289;42.688;23.330;2022-08-19T22:49:51;6.78;;;4.25;;
46561;SDS011;32289;42.688;23.330;2022-08-19T22:53:33;7.95;;;5.07;;
46561;SDS011;32289;42.688;23.330;2022-08-19T22:57:16;6.25;;;4.60;;
46561;SDS011;32289;42.688;23.330;2022-08-19T23:01:00;6.90;;;4.78;;
46561;SDS011;32289;42.688;23.330;2022-08-19T23:04:42;6.53;;;4.60;;
46561;SDS011;32289;42.688;23.330;2022-08-19T23:08:22;6.97;;;4.95;;
46561;SDS011;32289;42.688;23.330;2022-08-19T23:12:04;7.13;;;4.65;;
46561;SDS011;32289;42.688;23.330;2022-08-19T23:15:45;9.60;;;5.43;;
46561;SDS011;32289;42.688;23.330;2022-08-19T23:19:26;7.47;;;5.25;;
46561;SDS011;32289;42.688;23.330;2022-08-19T23:23:09;11.40;;;5.45;;
46561;SDS011;32289;42.688;23.330;2022-08-19T23:26:51;11.50;;;5.20;;
46561;SDS011;32289;42.688;23.330;2022-08-19T23:30:51;6.65;;;4.88;;
46561;SDS011;32289;42.688;23.330;2022-08-19T23:34:32;9.40;;;4.75;;
46561;SDS011;32289;42.688;23.330;2022-08-19T23:38:13;12.02;;;4.53;;
46561;SDS011;32289;42.688;23.330;2022-08-19T23:41:54;9.63;;;5.38;;
46561;SDS011;32289;42.688;23.330;2022-08-19T23:45:36;9.18;;;4.68;;
46561;SDS011;32289;42.688;23.330;2022-08-19T23:49:18;8.05;;;4.90;;
46561;SDS011;32289;42.688;23.330;2022-08-19T23:52:59;9.07;;;4.57;;
46561;SDS011;32289;42.688;23.330;2022-08-19T23:56:40;10.68;;;4.93;;
